createdAt,value
2023-03-06T00:00:00.337Z,1009.6
2023-03-06T00:05:00.625Z,1009.6
2023-03-06T00:10:00.210Z,1009.5
2023-03-06T00:15:00.255Z,1009.4
2023-03-06T00:20:00.453Z,1009.4
2023-03-06T00:25:00.881Z,1009.3
2023-03-06T00:30:00.420Z,1009.3
2023-03-06T00:35:00.334Z,1009.2
2023-03-06T00:40:00.047Z,1009.1
2023-03-06T00:45:00.361Z,1009
2023-03-06T00:50:00.386Z,1008.9
2023-03-06T00:55:00.127Z,1008.8
2023-03-06T01:00:00.178Z,1008.8
2023-03-06T01:05:00.366Z,1008.7
2023-03-06T01:10:00.822Z,1008.7
2023-03-06T01:15:00.156Z,1008.6
2023-03-06T01:20:00.351Z,1008.6
2023-03-06T01:25:00.346Z,1008.6
2023-03-06T01:30:00.862Z,1008.7
2023-03-06T01:35:00.317Z,1008.7
2023-03-06T01:40:00.252Z,1008.7
2023-03-06T01:45:01.788Z,1008.6
2023-03-06T01:50:00.023Z,1008.6
2023-03-06T01:55:00.173Z,1008.5
2023-03-06T02:00:00.147Z,1008.5
2023-03-06T02:05:00.308Z,1008.4
2023-03-06T02:10:00.347Z,1008.4
2023-03-06T02:15:29.609Z,1008.3
2023-03-06T02:19:59.911Z,1008.3
2023-03-06T02:25:00.387Z,1008.2
2023-03-06T02:30:03.851Z,1008.2
2023-03-06T02:35:00.138Z,1008.2
2023-03-06T02:39:59.974Z,1008.1
2023-03-06T02:44:59.961Z,1008.1
2023-03-06T02:49:59.990Z,1008
2023-03-06T02:55:00.114Z,1007.9
2023-03-06T03:00:00.575Z,1007.8
2023-03-06T03:05:00.212Z,1007.7
2023-03-06T03:09:59.844Z,1007.5
2023-03-06T03:15:00.129Z,1007.5
2023-03-06T03:19:59.975Z,1007.4
2023-03-06T03:25:00.103Z,1007.4
2023-03-06T03:30:00.631Z,1007.4
2023-03-06T03:34:59.942Z,1007.4
2023-03-06T03:40:00.101Z,1007.3
2023-03-06T03:45:00.037Z,1007.2
2023-03-06T03:50:00.008Z,1007.2
2023-03-06T03:55:00.204Z,1007.1
2023-03-06T04:00:00.001Z,1007.1
2023-03-06T04:04:59.958Z,1007.1
2023-03-06T04:10:00.029Z,1007
2023-03-06T04:15:00.060Z,1007
2023-03-06T04:19:59.914Z,1007
2023-03-06T04:24:59.885Z,1007
2023-03-06T04:29:59.875Z,1007
2023-03-06T04:34:59.967Z,1007
2023-03-06T04:40:00.110Z,1006.9
2023-03-06T04:44:59.902Z,1006.8
2023-03-06T04:49:59.999Z,1006.8
2023-03-06T04:55:00.206Z,1006.7
2023-03-06T05:00:00.364Z,1006.7
2023-03-06T05:04:59.936Z,1006.7
2023-03-06T05:10:00.938Z,1006.7
2023-03-06T05:15:00.438Z,1006.7
2023-03-06T05:20:00.513Z,1006.8
2023-03-06T05:24:59.805Z,1006.7
2023-03-06T05:29:59.864Z,1006.7
2023-03-06T05:35:00.026Z,1006.6
2023-03-06T05:40:00.222Z,1006.6
2023-03-06T05:45:00.135Z,1006.7
2023-03-06T05:49:59.934Z,1006.6
2023-03-06T05:54:59.778Z,1006.6
2023-03-06T05:59:59.789Z,1006.5
2023-03-06T06:04:59.787Z,1006.5
2023-03-06T06:10:01.231Z,1006.5
2023-03-06T06:14:59.868Z,1006.5
2023-03-06T06:20:00.035Z,1006.6
2023-03-06T06:24:59.846Z,1006.6
2023-03-06T06:29:59.903Z,1006.6
2023-03-06T06:35:00.268Z,1006.6
2023-03-06T06:40:00.002Z,1006.6
2023-03-06T06:44:59.971Z,1006.7
2023-03-06T06:49:59.761Z,1006.7
2023-03-06T06:54:59.950Z,1006.8
2023-03-06T07:00:00.072Z,1006.8
2023-03-06T07:05:04.616Z,1006.8
2023-03-06T07:09:59.744Z,1006.8
2023-03-06T07:14:59.956Z,1006.8
2023-03-06T07:19:59.875Z,1006.8
2023-03-06T07:24:59.736Z,1006.9
2023-03-06T07:29:59.992Z,1006.9
2023-03-06T07:35:17.596Z,1006.9
2023-03-06T07:39:59.978Z,1006.8
2023-03-06T07:44:59.877Z,1006.8
2023-03-06T07:49:59.998Z,1006.8
2023-03-06T07:55:00.047Z,1006.8
2023-03-06T07:59:59.900Z,1006.8
2023-03-06T08:04:59.756Z,1006.8
2023-03-06T08:10:00.204Z,1006.8
2023-03-06T08:14:59.991Z,1006.9
2023-03-06T08:19:59.838Z,1006.9
2023-03-06T08:24:59.708Z,1006.8
2023-03-06T08:30:00.042Z,1006.8
2023-03-06T08:34:59.744Z,1006.8
2023-03-06T08:39:59.734Z,1006.8
2023-03-06T08:44:59.880Z,1006.8
2023-03-06T08:50:00.819Z,1006.9
2023-03-06T08:54:59.919Z,1006.8
2023-03-06T08:59:59.723Z,1006.9
2023-03-06T09:04:59.669Z,1006.8
2023-03-06T09:10:00.173Z,1006.8
2023-03-06T09:15:02.168Z,1006.8
2023-03-06T09:19:59.722Z,1006.8
2023-03-06T09:24:59.618Z,1006.8
2023-03-06T09:29:59.895Z,1006.6
2023-03-06T09:34:59.748Z,1006.6
2023-03-06T09:39:59.892Z,1006.7
2023-03-06T09:44:59.681Z,1006.7
2023-03-06T09:49:59.611Z,1006.7
2023-03-06T09:54:59.537Z,1006.8
2023-03-06T10:00:01.471Z,1006.8
2023-03-06T10:05:02.040Z,1006.7
2023-03-06T10:10:01.767Z,1006.7
2023-03-06T10:14:59.674Z,1006.7
2023-03-06T10:19:59.660Z,1006.7
2023-03-06T10:24:59.864Z,1006.7
2023-03-06T10:30:03.382Z,1006.6
2023-03-06T10:34:59.747Z,1006.5
2023-03-06T12:55:02.176Z,1006.5
2023-03-06T12:59:59.720Z,1005.2
2023-03-06T13:05:02.560Z,1005.1
2023-03-06T13:09:59.371Z,1005.1
2023-03-06T13:14:59.771Z,1005
2023-03-06T13:20:35.157Z,1005
2023-03-06T13:25:06.791Z,1004.8
2023-03-06T13:30:05.011Z,1004.8
2023-03-06T13:34:59.470Z,1004.7
2023-03-06T13:39:59.326Z,1004.5
2023-03-06T13:44:59.268Z,1004.5
2023-03-06T13:49:59.699Z,1004.5
2023-03-06T13:54:59.173Z,1004.5
2023-03-06T14:00:10.161Z,1004.5
2023-03-06T14:05:00.051Z,1004.4
2023-03-06T14:09:59.215Z,1004.3
2023-03-06T14:14:59.080Z,1004.3
2023-03-06T14:20:00.469Z,1004.2
2023-03-06T14:24:59.292Z,1004.1
2023-03-06T14:29:59.360Z,1004.1
2023-03-06T14:34:59.175Z,1004.1
2023-03-06T14:39:59.023Z,1004
2023-03-06T14:44:59.903Z,1004
2023-03-06T14:49:59.050Z,1004
2023-03-06T14:54:59.029Z,1004.1
2023-03-06T14:59:59.144Z,1003.9
2023-03-06T15:04:59.098Z,1003.9
2023-03-06T15:09:59.322Z,1003.8
2023-03-06T15:14:59.189Z,1003.7
2023-03-06T15:19:59.305Z,1003.7
2023-03-06T15:24:59.188Z,1003.6
2023-03-06T15:30:09.625Z,1003.6
2023-03-06T15:34:58.962Z,1003.6
2023-03-06T15:39:58.982Z,1003.5
2023-03-06T15:44:59.242Z,1003.5
2023-03-06T15:49:59.033Z,1003.5
2023-03-06T15:54:59.112Z,1003.5
2023-03-06T15:59:58.992Z,1003.4
2023-03-06T16:04:58.990Z,1003.5
2023-03-06T16:09:59.278Z,1003.4
2023-03-06T16:14:58.970Z,1003.3
2023-03-06T16:19:58.895Z,1003.2
2023-03-06T16:24:59.181Z,1003.1
2023-03-06T16:29:59.130Z,1003
2023-03-06T16:34:58.945Z,1003
2023-03-06T16:39:59.068Z,1002.9
2023-03-06T16:44:59.113Z,1002.8
2023-03-06T16:49:59.026Z,1002.8
2023-03-06T16:54:59.182Z,1002.7
2023-03-06T16:59:58.993Z,1002.8
2023-03-06T17:04:58.980Z,1002.7
2023-03-06T17:09:59.215Z,1002.6
2023-03-06T17:14:58.858Z,1002.5
2023-03-06T17:19:59.023Z,1002.4
2023-03-06T17:24:58.997Z,1002.4
2023-03-06T17:29:59.038Z,1002.4
2023-03-06T17:34:59.342Z,1002.4
2023-03-06T17:39:58.937Z,1002.4
2023-03-06T17:44:59.041Z,1002.4
2023-03-06T17:49:59.229Z,1002.2
2023-03-06T17:54:59.006Z,1002.2
2023-03-06T17:59:59.153Z,1002.2
2023-03-06T18:04:58.922Z,1002.1
2023-03-06T18:09:59.224Z,1002.2
2023-03-06T18:14:58.859Z,1002.1
2023-03-06T18:19:58.774Z,1002
2023-03-06T18:24:59.107Z,1002
2023-03-06T18:29:58.992Z,1001.9
2023-03-06T18:34:58.707Z,1001.8
2023-03-06T18:39:59.126Z,1001.7
2023-03-06T18:44:58.720Z,1001.6
2023-03-06T18:49:59.259Z,1001.5
2023-03-06T18:55:00.356Z,1001.4
2023-03-06T19:00:00.426Z,1001.4
2023-03-06T19:05:00.367Z,1001.3
2023-03-06T19:10:00.754Z,1001.2
2023-03-06T19:15:01.347Z,1001.1
2023-03-06T19:20:00.473Z,1001
2023-03-06T19:25:03.378Z,1001
2023-03-06T19:30:00.239Z,1000.9
2023-03-06T19:35:00.384Z,1000.8
2023-03-06T19:40:00.496Z,1000.7
2023-03-06T19:45:00.361Z,1000.6
2023-03-06T19:50:00.423Z,1000.6
2023-03-06T19:55:00.651Z,1000.5
2023-03-06T20:00:00.591Z,1000.4
2023-03-06T20:05:00.555Z,1000.3
2023-03-06T20:10:00.623Z,1000.1
2023-03-06T20:15:00.197Z,1000.2
2023-03-06T20:20:00.593Z,1000.1
2023-03-06T20:25:00.317Z,999.9
2023-03-06T20:30:00.765Z,999.8
2023-03-06T20:35:00.326Z,999.7
2023-03-06T20:40:00.471Z,999.5
2023-03-06T20:45:00.546Z,999.4
2023-03-06T20:50:00.623Z,999.4
2023-03-06T20:55:00.558Z,999.4
2023-03-06T21:00:00.709Z,999.3
2023-03-06T21:05:00.675Z,999.3
2023-03-06T21:10:00.523Z,999.3
2023-03-06T21:15:00.343Z,999.3
2023-03-06T21:20:00.695Z,999.3
2023-03-06T21:25:00.424Z,999.1
2023-03-06T21:30:00.332Z,999.2
2023-03-06T21:35:00.350Z,999.1
2023-03-06T21:40:00.615Z,999.3
2023-03-06T21:45:00.153Z,999.2
2023-03-06T21:50:00.475Z,999.2
2023-03-06T21:55:00.505Z,999.2
2023-03-06T22:00:00.720Z,999
2023-03-06T22:05:00.354Z,999
2023-03-06T22:10:00.434Z,998.9
2023-03-06T22:15:00.419Z,998.8
2023-03-06T22:20:00.357Z,998.8
2023-03-06T22:25:00.639Z,998.8
2023-03-06T22:30:00.040Z,998.8
2023-03-06T22:35:00.365Z,998.8
2023-03-06T22:40:00.368Z,998.7
2023-03-06T22:45:00.363Z,998.7
2023-03-06T22:50:00.381Z,998.6
2023-03-06T22:55:00.046Z,998.6
2023-03-06T23:00:00.311Z,998.6
2023-03-06T23:05:00.170Z,998.6
2023-03-06T23:10:00.462Z,998.6
2023-03-06T23:15:00.244Z,998.6
2023-03-06T23:20:00.771Z,998.6
2023-03-06T23:25:00.364Z,998.6
2023-03-06T23:30:00.500Z,998.5
2023-03-06T23:35:00.047Z,998.6
2023-03-06T23:40:00.192Z,998.6
2023-03-06T23:45:00.328Z,998.6
2023-03-06T23:50:00.372Z,998.6
2023-03-06T23:55:00.119Z,998.6
